createdAt,value
2019-02-27T00:01:49.645Z,102294.30
2019-02-27T00:04:12.950Z,102292.67
2019-02-27T00:06:37.368Z,102290.23
2019-02-27T00:09:01.833Z,102284.85
2019-02-27T00:11:26.233Z,102283.69
2019-02-27T00:13:50.745Z,102285.50
2019-02-27T00:16:15.234Z,102282.16
2019-02-27T00:18:39.817Z,102281.89
2019-02-27T00:21:04.226Z,102270.73
2019-02-27T00:23:28.695Z,102277.34
2019-02-27T00:25:53.196Z,102276.44
2019-02-27T00:28:17.611Z,102273.36
2019-02-27T00:30:42.199Z,102272.66
2019-02-27T00:33:06.625Z,102272.70
2019-02-27T00:35:31.059Z,102273.61
2019-02-27T00:37:55.473Z,102276.75
2019-02-27T00:40:19.926Z,102262.80
2019-02-27T00:42:44.335Z,102263.59
2019-02-27T00:45:10.624Z,102265.33
2019-02-27T00:47:35.046Z,102275.10
2019-02-27T00:49:59.488Z,102269.16
2019-02-27T00:52:23.984Z,102272.14
2019-02-27T00:54:48.423Z,102272.38
2019-02-27T00:57:12.851Z,102263.02
2019-02-27T00:59:37.273Z,102258.00
2019-02-27T01:02:01.764Z,102257.43
2019-02-27T01:04:26.192Z,102260.66
2019-02-27T01:06:50.669Z,102258.25
2019-02-27T01:09:15.571Z,102247.77
2019-02-27T01:11:39.983Z,102244.34
2019-02-27T01:14:04.689Z,102245.52
2019-02-27T01:16:29.163Z,102240.59
2019-02-27T01:18:53.603Z,102246.97
2019-02-27T01:21:19.956Z,102239.07
2019-02-27T01:23:44.778Z,102238.18
2019-02-27T01:26:09.710Z,102244.06
2019-02-27T01:28:34.126Z,102235.11
2019-02-27T01:30:58.574Z,102237.63
2019-02-27T01:33:22.986Z,102233.33
2019-02-27T01:35:51.372Z,102232.27
2019-02-27T01:38:13.612Z,102232.36
2019-02-27T01:40:38.040Z,102228.33
2019-02-27T01:43:05.290Z,102230.88
2019-02-27T01:45:28.649Z,102233.39
2019-02-27T01:47:53.165Z,102227.72
2019-02-27T01:50:31.764Z,102223.23
2019-02-27T01:52:56.268Z,102219.39
2019-02-27T01:55:22.427Z,102215.46
2019-02-27T01:57:46.810Z,102212.83
2019-02-27T02:00:11.388Z,102209.02
2019-02-27T02:02:37.581Z,102203.84
2019-02-27T02:05:02.075Z,102212.38
2019-02-27T02:07:26.504Z,102202.63
2019-02-27T02:09:52.188Z,102203.68
2019-02-27T02:12:20.137Z,102198.20
2019-02-27T02:14:54.308Z,102203.97
2019-02-27T02:17:34.212Z,102202.64
2019-02-27T02:20:19.508Z,102207.56
2019-02-27T02:23:01.739Z,102198.84
2019-02-27T02:25:38.126Z,102194.08
2019-02-27T02:28:20.315Z,102187.64
2019-02-27T02:31:13.157Z,102185.19
2019-02-27T02:33:52.212Z,102182.43
2019-02-27T02:36:31.771Z,102176.23
2019-02-27T02:39:19.130Z,102177.92
2019-02-27T02:42:04.409Z,102176.58
2019-02-27T02:44:31.899Z,102167.83
2019-02-27T02:46:59.405Z,102162.43
2019-02-27T02:49:43.939Z,102155.54
2019-02-27T02:52:17.265Z,102157.56
2019-02-27T02:54:59.713Z,102152.92
2019-02-27T02:57:45.011Z,102156.79
2019-02-27T03:00:21.821Z,102150.77
2019-02-27T03:03:00.802Z,102141.09
2019-02-27T03:05:42.238Z,102138.42
2019-02-27T03:08:24.399Z,102136.77
2019-02-27T03:10:55.041Z,102128.69
2019-02-27T03:13:24.324Z,102103.37
2019-02-27T03:16:19.016Z,102133.01
2019-02-27T03:18:52.249Z,102129.77
2019-02-27T03:21:28.587Z,102128.47
2019-02-27T03:23:57.496Z,102122.23
2019-02-27T03:26:27.992Z,102120.45
2019-02-27T03:28:55.504Z,102112.39
2019-02-27T03:31:34.905Z,102116.02
2019-02-27T03:34:35.687Z,102111.92
2019-02-27T03:37:17.603Z,102108.94
2019-02-27T03:40:03.100Z,101909.27
2019-02-27T03:42:57.336Z,102107.78
2019-02-27T03:45:47.530Z,102104.63
2019-02-27T03:48:39.120Z,102106.55
2019-02-27T03:51:24.397Z,102106.37
2019-02-27T03:54:20.588Z,102099.19
2019-02-27T03:56:46.855Z,102091.64
2019-02-27T03:59:30.610Z,102087.14
2019-02-27T04:02:16.576Z,102083.55
2019-02-27T04:04:55.801Z,102077.69
2019-02-27T04:07:32.739Z,102074.25
2019-02-27T04:09:57.260Z,102077.86
2019-02-27T04:12:21.753Z,102075.12
2019-02-27T04:14:46.162Z,102077.84
2019-02-27T04:17:10.600Z,102075.41
2019-02-27T04:19:38.722Z,102076.61
2019-02-27T04:22:02.066Z,102081.03
2019-02-27T04:24:26.512Z,102084.66
2019-02-27T04:26:50.957Z,102080.80
2019-02-27T04:29:15.368Z,102075.91
2019-02-27T04:31:39.810Z,102073.68
2019-02-27T04:34:04.306Z,102073.11
2019-02-27T04:36:28.754Z,102073.54
2019-02-27T04:38:53.175Z,102074.92
2019-02-27T04:41:18.055Z,102071.73
2019-02-27T04:43:43.201Z,102070.23
2019-02-27T04:46:07.612Z,102069.83
2019-02-27T04:48:32.136Z,102068.53
2019-02-27T04:50:56.614Z,102071.73
2019-02-27T04:53:21.037Z,102067.98
2019-02-27T04:55:47.938Z,102066.17
2019-02-27T04:58:11.601Z,102070.39
2019-02-27T05:00:36.083Z,102075.35
2019-02-27T05:03:00.518Z,102069.12
2019-02-27T05:05:24.938Z,102060.11
2019-02-27T05:07:49.352Z,102060.34
2019-02-27T05:10:13.860Z,102061.92
2019-02-27T05:12:38.330Z,102061.58
2019-02-27T05:15:04.186Z,102061.48
2019-02-27T05:17:28.882Z,102055.10
2019-02-27T05:19:53.321Z,102057.07
2019-02-27T05:22:17.743Z,102058.33
2019-02-27T05:24:42.199Z,102055.18
2019-02-27T05:27:06.695Z,102057.17
2019-02-27T05:29:31.126Z,102056.86
2019-02-27T05:31:55.544Z,102055.69
2019-02-27T05:34:19.985Z,102061.31
2019-02-27T05:36:44.395Z,102055.80
2019-02-27T05:39:08.837Z,102062.95
2019-02-27T05:41:33.793Z,102067.66
2019-02-27T05:43:58.257Z,102064.58
2019-02-27T05:46:22.712Z,102060.75
2019-02-27T05:48:47.139Z,102067.59
2019-02-27T05:51:11.579Z,102064.00
2019-02-27T05:53:36.166Z,102065.23
2019-02-27T05:56:00.601Z,102064.56
2019-02-27T05:58:25.025Z,102060.44
2019-02-27T06:00:49.514Z,102052.69
2019-02-27T06:03:15.955Z,102058.88
2019-02-27T06:05:40.067Z,102058.83
2019-02-27T06:08:04.556Z,102052.81
2019-02-27T06:10:28.997Z,102050.89
2019-02-27T06:12:53.414Z,102046.47
2019-02-27T06:15:18.804Z,102045.56
2019-02-27T06:17:43.749Z,102048.59
2019-02-27T06:20:09.426Z,102043.28
2019-02-27T06:22:33.847Z,102038.34
2019-02-27T06:24:58.285Z,102040.34
2019-02-27T06:27:22.714Z,102035.17
2019-02-27T06:29:47.173Z,102032.68
2019-02-27T06:32:12.343Z,102032.86
2019-02-27T06:34:37.495Z,102029.17
2019-02-27T06:37:01.963Z,102025.48
2019-02-27T06:39:26.666Z,102025.72
2019-02-27T06:41:51.103Z,102024.05
2019-02-27T06:44:15.634Z,102016.91
2019-02-27T06:46:40.078Z,102009.54
2019-02-27T06:49:04.566Z,102015.53
2019-02-27T06:51:29.052Z,102009.84
2019-02-27T06:53:53.483Z,102010.09
2019-02-27T06:56:17.940Z,102008.01
2019-02-27T06:58:42.344Z,102005.03
2019-02-27T07:01:09.371Z,102008.58
2019-02-27T07:03:33.070Z,101998.45
2019-02-27T07:05:57.597Z,102000.30
2019-02-27T07:08:22.136Z,102000.33
2019-02-27T07:10:46.579Z,102000.60
2019-02-27T07:13:11.078Z,102000.33
2019-02-27T07:15:35.493Z,102006.70
2019-02-27T07:17:59.911Z,102010.53
2019-02-27T07:20:25.358Z,102006.45
2019-02-27T07:22:49.786Z,102005.83
2019-02-27T07:25:18.441Z,102004.94
2019-02-27T07:27:42.953Z,102000.70
2019-02-27T07:30:13.156Z,101992.04
2019-02-27T07:32:37.686Z,101994.98
2019-02-27T07:35:02.105Z,101998.05
2019-02-27T07:37:26.606Z,101996.36
2019-02-27T07:39:51.021Z,101989.95
2019-02-27T07:42:15.459Z,101987.11
2019-02-27T07:44:39.874Z,101984.92
2019-02-27T07:47:04.335Z,101989.23
2019-02-27T07:49:30.935Z,101991.28
2019-02-27T07:51:57.939Z,101982.45
2019-02-27T07:54:20.991Z,101982.92
2019-02-27T07:56:45.455Z,101974.08
2019-02-27T07:59:09.863Z,101979.73
2019-02-27T08:01:43.265Z,101976.35
2019-02-27T08:04:00.408Z,101982.92
2019-02-27T08:06:24.832Z,101978.30
2019-02-27T08:08:49.281Z,101975.16
2019-02-27T08:11:14.253Z,101979.72
2019-02-27T08:13:38.825Z,101974.75
2019-02-27T08:16:03.475Z,101975.73
2019-02-27T08:18:30.565Z,101981.19
2019-02-27T08:20:54.666Z,101978.50
2019-02-27T08:23:19.683Z,101983.45
2019-02-27T08:25:44.096Z,101982.14
2019-02-27T08:28:08.615Z,101979.77
2019-02-27T08:30:33.116Z,101978.87
2019-02-27T08:32:57.636Z,101980.09
2019-02-27T08:35:22.191Z,101983.25
2019-02-27T08:37:46.723Z,101982.55
2019-02-27T08:40:15.146Z,101978.56
2019-02-27T08:42:40.547Z,101977.56
2019-02-27T08:45:07.438Z,101969.64
2019-02-27T08:47:33.625Z,101967.58
2019-02-27T08:49:58.634Z,101962.75
2019-02-27T08:52:23.094Z,101962.03
2019-02-27T08:54:47.530Z,101960.72
2019-02-27T08:57:12.018Z,101955.61
2019-02-27T08:59:36.893Z,101951.43
2019-02-27T09:02:02.742Z,101951.30
2019-02-27T09:04:27.187Z,101944.83
2019-02-27T09:06:51.615Z,101946.48
2019-02-27T09:09:17.943Z,101939.73
2019-02-27T09:11:42.294Z,101933.66
2019-02-27T09:14:06.781Z,101928.41
2019-02-27T09:16:31.230Z,101925.37
2019-02-27T09:18:55.647Z,101922.88
2019-02-27T09:21:20.097Z,101920.38
2019-02-27T09:23:44.983Z,101907.68
2019-02-27T09:26:09.758Z,101901.27
2019-02-27T09:28:34.208Z,101903.84
2019-02-27T09:31:03.344Z,101898.72
2019-02-27T09:33:25.740Z,101904.30
2019-02-27T09:35:50.270Z,101895.02
2019-02-27T09:38:14.705Z,101888.31
2019-02-27T09:40:39.694Z,101891.84
2019-02-27T09:43:06.228Z,101884.56
2019-02-27T09:45:35.367Z,101892.14
2019-02-27T09:48:00.808Z,101874.13
2019-02-27T09:50:31.024Z,101880.81
2019-02-27T09:52:55.524Z,101867.92
2019-02-27T09:55:20.840Z,101868.17
2019-02-27T09:57:45.366Z,101864.24
2019-02-27T10:00:30.650Z,101868.59
2019-02-27T10:02:55.176Z,101861.02
2019-02-27T10:05:19.680Z,101858.05
2019-02-27T10:07:44.126Z,101868.36
2019-02-27T10:10:10.440Z,101860.41
2019-02-27T10:12:34.752Z,101854.73
2019-02-27T10:14:59.218Z,101851.84
2019-02-27T10:17:23.649Z,101846.86
2019-02-27T10:19:48.072Z,101840.02
2019-02-27T10:22:12.596Z,101841.26
2019-02-27T10:24:37.620Z,101837.88
2019-02-27T10:27:02.148Z,101797.47
2019-02-27T10:29:26.584Z,101826.73
2019-02-27T10:31:51.004Z,101826.87
2019-02-27T10:34:17.615Z,101825.12
2019-02-27T10:36:41.730Z,101822.77
2019-02-27T10:39:07.099Z,101820.46
2019-02-27T10:41:31.512Z,101814.33
2019-02-27T10:43:56.589Z,101811.02
2019-02-27T10:46:23.649Z,101804.08
2019-02-27T10:48:48.027Z,101810.41
2019-02-27T10:51:12.447Z,101795.09
2019-02-27T10:53:36.897Z,101786.13
2019-02-27T10:56:01.360Z,101779.02
2019-02-27T10:58:25.886Z,101775.05
2019-02-27T11:00:50.383Z,101772.17
2019-02-27T11:03:14.915Z,101759.55
2019-02-27T11:05:40.083Z,101756.44
2019-02-27T11:08:04.647Z,101754.85
2019-02-27T11:10:29.253Z,101747.83
2019-02-27T11:12:53.824Z,101747.28
2019-02-27T11:15:23.051Z,101745.50
2019-02-27T11:17:47.488Z,101743.03
2019-02-27T11:20:12.988Z,101736.56
2019-02-27T11:22:37.485Z,101734.65
2019-02-27T11:25:02.066Z,101732.88
2019-02-27T11:27:26.491Z,101720.45
2019-02-27T11:29:51.009Z,101719.63
2019-02-27T11:32:15.445Z,101713.70
2019-02-27T11:34:39.974Z,101702.26
2019-02-27T11:37:04.451Z,101704.30
2019-02-27T11:39:30.514Z,101708.49
2019-02-27T11:41:55.080Z,101702.41
2019-02-27T11:44:19.595Z,101701.21
2019-02-27T11:46:44.081Z,101686.41
2019-02-27T11:49:08.493Z,101688.88
2019-02-27T11:51:32.955Z,101680.04
2019-02-27T11:53:57.377Z,101674.09
2019-02-27T11:56:21.825Z,101672.05
2019-02-27T11:58:46.261Z,101663.06
2019-02-27T12:01:12.186Z,101655.69
2019-02-27T12:03:36.806Z,101655.45
2019-02-27T12:06:01.244Z,101643.95
2019-02-27T12:08:26.771Z,101642.28
2019-02-27T12:10:51.449Z,101641.41
2019-02-27T12:13:15.875Z,101647.88
2019-02-27T12:15:43.352Z,101627.41
2019-02-27T12:18:06.493Z,101621.22
2019-02-27T12:20:31.124Z,101592.98
2019-02-27T12:22:55.528Z,101617.36
2019-02-27T12:25:21.518Z,101605.73
2019-02-27T12:27:49.794Z,101604.09
2019-02-27T12:30:25.767Z,101595.22
2019-02-27T12:32:50.410Z,101586.41
2019-02-27T12:35:20.495Z,101593.28
2019-02-27T12:37:44.967Z,101582.63
2019-02-27T12:40:12.696Z,101586.28
2019-02-27T12:42:37.686Z,101575.97
2019-02-27T12:45:03.373Z,101579.09
2019-02-27T12:47:27.787Z,101572.35
2019-02-27T12:49:54.187Z,101566.56
2019-02-27T12:52:18.412Z,101561.45
2019-02-27T12:54:42.844Z,101552.05
2019-02-27T12:57:07.367Z,101553.23
2019-02-27T12:59:33.019Z,101548.51
2019-02-27T13:01:58.259Z,101549.08
2019-02-27T13:04:22.867Z,101546.62
2019-02-27T13:06:47.782Z,101537.55
2019-02-27T13:09:12.645Z,101542.55
2019-02-27T13:11:39.046Z,101543.81
2019-02-27T13:14:03.256Z,101540.27
2019-02-27T13:16:27.724Z,101535.11
2019-02-27T13:18:55.142Z,101533.56
2019-02-27T13:21:21.307Z,101528.00
2019-02-27T13:23:45.775Z,101532.72
2019-02-27T13:26:10.251Z,101534.36
2019-02-27T13:28:34.973Z,101532.58
2019-02-27T13:30:59.386Z,101523.16
2019-02-27T13:33:23.811Z,101534.87
2019-02-27T13:35:48.384Z,101525.39
2019-02-27T13:38:17.730Z,101518.77
2019-02-27T13:40:39.610Z,101506.73
2019-02-27T13:43:04.477Z,101511.13
2019-02-27T13:45:30.735Z,101506.55
2019-02-27T13:47:55.692Z,101502.53
2019-02-27T13:50:23.440Z,101500.56
2019-02-27T13:52:49.900Z,101490.45
2019-02-27T13:55:16.486Z,101487.89
2019-02-27T13:57:41.222Z,101476.20
2019-02-27T14:00:20.381Z,101469.55
2019-02-27T14:02:41.000Z,101471.16
2019-02-27T14:05:08.282Z,101463.70
2019-02-27T14:07:33.082Z,101460.76
2019-02-27T14:09:57.987Z,101464.33
2019-02-27T14:12:22.747Z,101448.45
2019-02-27T14:14:52.139Z,101449.74
2019-02-27T14:17:14.108Z,101437.25
2019-02-27T14:19:38.567Z,101435.36
2019-02-27T14:22:07.322Z,101428.83
2019-02-27T14:24:29.151Z,101415.83
2019-02-27T14:26:53.560Z,101410.22
2019-02-27T14:29:18.103Z,101407.31
2019-02-27T14:31:43.435Z,101411.79
2019-02-27T14:34:08.524Z,101402.34
2019-02-27T14:36:32.985Z,101395.78
2019-02-27T14:38:57.440Z,101398.78
2019-02-27T14:41:21.853Z,101386.59
2019-02-27T14:43:46.293Z,101384.01
2019-02-27T14:46:11.494Z,101383.25
2019-02-27T14:48:36.692Z,101379.55
2019-02-27T14:51:01.189Z,101380.41
2019-02-27T14:53:25.665Z,101372.96
2019-02-27T14:55:50.175Z,101369.22
2019-02-27T14:58:15.241Z,101365.95
2019-02-27T15:00:40.979Z,101359.71
2019-02-27T15:03:05.714Z,101348.67
2019-02-27T15:05:30.379Z,101342.80
2019-02-27T15:07:55.005Z,101339.85
2019-02-27T15:10:21.768Z,101337.97
2019-02-27T15:12:46.298Z,101327.16
2019-02-27T15:15:19.755Z,101329.11
2019-02-27T15:17:44.151Z,101329.53
2019-02-27T15:20:11.970Z,101328.98
2019-02-27T15:22:36.526Z,101311.00
2019-02-27T15:25:01.053Z,101298.25
2019-02-27T15:27:25.709Z,101301.27
2019-02-27T15:29:50.321Z,101296.94
2019-02-27T15:32:14.737Z,101289.61
2019-02-27T15:34:39.168Z,101289.21
2019-02-27T15:37:04.236Z,101284.67
2019-02-27T15:39:29.469Z,101276.91
2019-02-27T15:41:53.931Z,101276.78
2019-02-27T15:44:18.348Z,101273.87
2019-02-27T15:46:42.871Z,101274.08
2019-02-27T15:49:07.288Z,101267.81
2019-02-27T15:51:32.482Z,101260.75
2019-02-27T15:53:57.624Z,101264.07
2019-02-27T15:56:22.095Z,101267.61
2019-02-27T15:58:46.586Z,101258.04
2019-02-27T16:01:11.080Z,101252.11
2019-02-27T16:03:35.527Z,101248.54
2019-02-27T16:06:05.184Z,101241.75
2019-02-27T16:08:26.219Z,101242.83
2019-02-27T16:10:54.844Z,101237.88
2019-02-27T16:13:16.781Z,101231.13
2019-02-27T16:15:41.213Z,101194.80
2019-02-27T16:18:05.681Z,101224.76
2019-02-27T16:20:30.589Z,101221.98
2019-02-27T16:22:55.115Z,101221.98
2019-02-27T16:25:21.470Z,101221.55
2019-02-27T16:27:46.268Z,101218.86
2019-02-27T16:30:13.753Z,101213.09
2019-02-27T16:32:38.210Z,101213.72
2019-02-27T16:35:04.372Z,101203.55
2019-02-27T16:37:28.841Z,101208.75
2019-02-27T16:39:55.190Z,101212.70
2019-02-27T16:42:19.418Z,101207.64
2019-02-27T16:44:43.867Z,101202.22
2019-02-27T16:47:08.293Z,101196.04
2019-02-27T16:49:32.745Z,101196.58
2019-02-27T16:51:57.169Z,101188.70
2019-02-27T16:54:24.038Z,101185.36
2019-02-27T16:56:50.062Z,101183.08
2019-02-27T16:59:14.070Z,101181.89
2019-02-27T17:01:38.578Z,101173.86
2019-02-27T17:04:03.101Z,101174.70
2019-02-27T17:06:27.666Z,101169.52
2019-02-27T17:08:52.146Z,101170.73
2019-02-27T17:11:16.637Z,101164.59
2019-02-27T17:13:41.074Z,101163.96
2019-02-27T17:16:07.095Z,101162.95
2019-02-27T17:18:31.715Z,101159.97
2019-02-27T17:20:56.127Z,101159.02
2019-02-27T17:23:20.587Z,101154.96
2019-02-27T17:25:45.060Z,101158.69
2019-02-27T17:28:11.638Z,101149.81
2019-02-27T17:30:38.030Z,101145.92
2019-02-27T17:33:04.276Z,101140.16
2019-02-27T17:35:28.987Z,101136.75
2019-02-27T17:37:53.492Z,101136.88
2019-02-27T17:40:18.946Z,101124.73
2019-02-27T17:42:43.761Z,101121.05
2019-02-27T17:45:13.074Z,101120.34
2019-02-27T17:47:37.716Z,101115.08
2019-02-27T17:50:02.144Z,101108.64
2019-02-27T17:52:26.584Z,101112.16
2019-02-27T17:54:51.129Z,101095.31
2019-02-27T17:57:15.538Z,101102.20
2019-02-27T17:59:42.302Z,101096.13
2019-02-27T18:02:07.806Z,101093.47
2019-02-27T18:04:32.299Z,101085.16
2019-02-27T18:06:59.821Z,101075.67
2019-02-27T18:09:23.445Z,101073.56
2019-02-27T18:11:52.405Z,101073.27
2019-02-27T18:14:17.784Z,101069.36
2019-02-27T18:16:42.171Z,101062.52
2019-02-27T18:19:06.630Z,101062.50
2019-02-27T18:21:33.806Z,101058.34
2019-02-27T18:23:58.890Z,101049.25
2019-02-27T18:26:25.168Z,101051.63
2019-02-27T18:28:49.597Z,101052.09
2019-02-27T18:31:14.117Z,101048.06
2019-02-27T18:33:38.632Z,101053.70
2019-02-27T18:36:04.865Z,101046.81
2019-02-27T18:38:29.250Z,101041.06
2019-02-27T18:40:53.795Z,101035.61
2019-02-27T18:43:27.222Z,101034.94
2019-02-27T18:45:54.528Z,101026.83
2019-02-27T18:48:20.586Z,101027.92
2019-02-27T18:50:48.979Z,101027.27
2019-02-27T18:53:17.639Z,101017.97
2019-02-27T18:55:47.892Z,101019.95
2019-02-27T18:58:13.832Z,101019.58
2019-02-27T19:00:42.940Z,101010.58
2019-02-27T19:03:10.396Z,101007.78
2019-02-27T19:05:41.759Z,101006.02
2019-02-27T19:08:16.698Z,100998.48
2019-02-27T19:10:50.842Z,100995.08
2019-02-27T19:13:26.003Z,100983.28
2019-02-27T19:15:53.448Z,100983.22
2019-02-27T19:18:20.573Z,100970.36
2019-02-27T19:20:47.636Z,100967.67
2019-02-27T19:23:17.154Z,100963.53
2019-02-27T19:25:41.853Z,100959.28
2019-02-27T19:28:13.166Z,100956.07
2019-02-27T19:30:41.655Z,100954.32
2019-02-27T19:33:17.453Z,100951.03
2019-02-27T19:35:42.123Z,100945.56
2019-02-27T19:38:12.575Z,100944.25
2019-02-27T19:40:36.261Z,100942.48
2019-02-27T19:43:06.513Z,100941.13
2019-02-27T19:45:35.896Z,100939.12
2019-02-27T19:47:57.422Z,100935.16
2019-02-27T19:50:25.351Z,100938.50
2019-02-27T19:52:54.029Z,100937.00
2019-02-27T19:55:18.655Z,100927.27
2019-02-27T19:57:47.273Z,100924.81
2019-02-27T20:00:23.084Z,100927.89
2019-02-27T20:02:55.251Z,100922.45
2019-02-27T20:05:16.457Z,100908.92
2019-02-27T20:07:43.310Z,100902.13
2019-02-27T20:10:12.779Z,100896.39
2019-02-27T20:12:39.009Z,100896.48
2019-02-27T20:15:11.774Z,100893.95
2019-02-27T20:17:36.485Z,100887.67
2019-02-27T20:20:04.104Z,100890.59
2019-02-27T20:22:27.863Z,100885.02
2019-02-27T20:24:56.594Z,100889.64
2019-02-27T20:27:32.973Z,100884.02
2019-02-27T20:30:14.081Z,100886.75
2019-02-27T20:32:30.214Z,100881.66
2019-02-27T20:34:54.802Z,100871.06
2019-02-27T20:37:21.022Z,100868.98
2019-02-27T20:39:49.476Z,100855.81
2019-02-27T20:42:24.675Z,100849.34
2019-02-27T20:44:49.838Z,100847.47
2019-02-27T20:47:21.887Z,100842.30
2019-02-27T20:49:49.710Z,100838.41
2019-02-27T20:52:14.903Z,100831.47
2019-02-27T20:54:41.275Z,100824.46
2019-02-27T20:57:08.086Z,100827.15
2019-02-27T20:59:33.881Z,100819.81
2019-02-27T21:02:03.586Z,100823.98
2019-02-27T21:04:32.288Z,100821.47
2019-02-27T21:07:00.907Z,100820.78
2019-02-27T21:09:25.163Z,100816.13
2019-02-27T21:11:49.555Z,100810.03
2019-02-27T21:14:14.049Z,100807.53
2019-02-27T21:16:40.169Z,100809.95
2019-02-27T21:19:16.834Z,100808.27
2019-02-27T21:21:41.309Z,100802.53
2019-02-27T21:24:06.491Z,100793.14
2019-02-27T21:26:32.645Z,100787.28
2019-02-27T21:28:58.999Z,100779.95
2019-02-27T21:31:27.586Z,100781.30
2019-02-27T21:33:51.430Z,100775.22
2019-02-27T21:36:16.093Z,100779.02
2019-02-27T21:38:40.571Z,100776.84
2019-02-27T21:41:05.163Z,100776.33
2019-02-27T21:43:32.082Z,100781.62
2019-02-27T21:45:56.668Z,100776.83
2019-02-27T21:48:23.397Z,100786.80
2019-02-27T21:50:47.378Z,100786.14
2019-02-27T21:53:11.791Z,100790.80
2019-02-27T21:55:36.316Z,100789.63
2019-02-27T21:58:00.703Z,100793.41
2019-02-27T22:00:28.019Z,100787.91
2019-02-27T22:02:56.637Z,100782.98
2019-02-27T22:05:21.128Z,100777.09
2019-02-27T22:07:45.712Z,100774.16
2019-02-27T22:10:19.455Z,100767.98
2019-02-27T22:12:43.905Z,100760.10
2019-02-27T22:15:13.055Z,100751.48
2019-02-27T22:17:37.770Z,100744.33
2019-02-27T22:20:02.183Z,100745.53
2019-02-27T22:22:26.620Z,100746.18
2019-02-27T22:24:52.226Z,100741.19
2019-02-27T22:27:17.300Z,100743.43
2019-02-27T22:29:42.692Z,100743.70
2019-02-27T22:32:07.185Z,100736.09
2019-02-27T22:34:31.656Z,100732.92
2019-02-27T22:36:56.066Z,100724.05
2019-02-27T22:39:22.107Z,100719.16
2019-02-27T22:41:46.496Z,100716.09
2019-02-27T22:44:10.929Z,100711.80
2019-02-27T22:46:35.369Z,100709.84
2019-02-27T22:49:01.013Z,100708.38
2019-02-27T22:51:25.599Z,100704.33
2019-02-27T22:53:50.036Z,100695.84
2019-02-27T22:56:16.839Z,100699.77
2019-02-27T22:58:40.600Z,100689.05
2019-02-27T23:01:10.215Z,100696.88
2019-02-27T23:03:40.566Z,100690.66
2019-02-27T23:06:05.899Z,100685.28
2019-02-27T23:08:30.395Z,100676.91
2019-02-27T23:10:55.744Z,100682.77
2019-02-27T23:13:20.344Z,100684.98
2019-02-27T23:15:44.946Z,100682.11
2019-02-27T23:18:09.522Z,100670.04
2019-02-27T23:20:34.218Z,100671.88
2019-02-27T23:23:02.424Z,100664.57
2019-02-27T23:25:25.307Z,100661.54
2019-02-27T23:27:49.789Z,100670.75
2019-02-27T23:30:15.799Z,100677.37
2019-02-27T23:32:41.094Z,100668.72
2019-02-27T23:35:06.579Z,100666.30
2019-02-27T23:37:31.381Z,100660.77
2019-02-27T23:39:56.129Z,100656.72
2019-02-27T23:42:20.857Z,100660.30
2019-02-27T23:44:45.711Z,100656.47
2019-02-27T23:47:10.629Z,100657.03
2019-02-27T23:49:39.556Z,100659.47
2019-02-27T23:52:01.699Z,100653.03
2019-02-27T23:54:26.367Z,100640.80
2019-02-27T23:56:51.821Z,100634.69
2019-02-27T23:59:17.719Z,100632.97
